Latest Weather Observations for Cape Grim

IDT60801

Issued at 9:41 pm EST Wednesday 19 September 2018 (issued every 10 minutes, with the page automatically refreshed every 10 minutes)

About weather observations | Map of weather stations | Latest weather observations for TAS | Other Formats
Station Details ID: 091331 Name: CAPE GRIM Lat: -40.68 Lon: 144.69 Height: 86.0 m
Data from the previous 72 hours. | See also: Recent months at Cape Grim
Date/Time
EST
Temp
°C
App
Temp
°C
Dew
Point
°C
Rel
Hum
%
Delta-T
°C
Wind Press
QNH
hPa
Press
MSL
hPa
Rain since
9am
mm
Dir  Spd
km/h
Gust
km/h
Spd
kts
Gust
kts
19/09:30pm 9.8 4.8 4.4 69 2.4 W 20 33 11 18 1015.1 1015.2 1.6
19/09:00pm 9.6 3.5 2.7 62 3.0 W 24 35 13 19 1015.0 1015.1 1.6
19/08:30pm 9.9 4.1 4.5 69 2.4 W 24 33 13 18 1014.7 1014.8 1.6
19/08:00pm 9.4 4.9 4.4 71 2.2 WSW 17 26 9 14 1014.5 1014.6 1.6
19/07:30pm 8.3 3.4 4.1 75 1.8 SW 19 26 10 14 1014.2 1014.3 1.6
19/07:03pm 8.5 1.5 4.3 75 1.8 WSW 30 54 16 29 1014.0 1014.1 0.2
19/07:00pm 9.2 3.4 4.6 73 2.1 WSW 24 52 13 28 1013.8 1013.9 0.0
19/06:30pm 9.9 3.6 3.9 66 2.6 SW 26 35 14 19 1013.5 1013.6 0.0
19/06:00pm 9.7 3.5 4.5 70 2.3 SW 26 35 14 19 1013.1 1013.2 0.0
19/05:30pm 9.7 3.1 4.3 69 2.4 SW 28 35 15 19 1012.6 1012.7 0.0
19/05:00pm 10.0 2.2 4.8 70 2.3 SW 35 44 19 24 1012.4 1012.5 0.0
19/04:30pm 10.3 2.9 4.0 65 2.8 SW 32 43 17 23 1012.2 1012.3 0.0
19/04:00pm 10.2 3.5 5.8 74 2.0 SW 30 39 16 21 1012.2 1012.3 0.0
19/03:30pm 10.2 3.3 4.4 67 2.6 SW 30 48 16 26 1011.8 1011.9 0.0
19/03:29pm 10.2 2.9 4.4 67 2.6 SW 32 48 17 26 1011.8 1011.9 0.0
19/03:00pm 10.4 4.8 5.4 71 2.3 W 24 39 13 21 1011.6 1011.7 0.0
19/02:30pm 10.3 3.4 4.7 68 2.5 SW 30 43 16 23 1011.3 1011.4 0.0
19/02:00pm 10.6 3.1 4.5 66 2.8 SW 33 44 18 24 1011.0 1011.1 0.0
19/01:44pm 11.1 3.7 5.0 66 2.8 SW 33 54 18 29 1010.9 1011.0 0.0
19/01:30pm 10.7 3.2 4.2 64 2.9 SW 33 46 18 25 1010.8 1010.9 0.0
19/01:00pm 10.5 3.1 3.8 63 3.0 SW 32 46 17 25 1010.7 1010.8 0.0
19/12:30pm 10.4 2.3 5.2 70 2.4 SW 37 50 20 27 1010.5 1010.6 0.0
19/12:19pm 10.9 3.5 4.1 63 3.0 SW 32 50 17 27 1010.4 1010.5 0.0
19/12:00pm 10.7 2.8 4.6 66 2.8 SW 35 46 19 25 1010.3 1010.4 0.0
19/11:30am 10.1 1.5 4.5 68 2.5 SW 39 48 21 26 1010.1 1010.2 0.0
19/11:00am 10.6 3.1 4.3 65 2.8 SW 33 41 18 22 1010.0 1010.1 0.0
19/10:30am 10.0 1.2 3.5 64 2.8 SW 39 48 21 26 1009.5 1009.5 0.0
19/10:00am 10.0 5.2 4.6 69 2.4 WSW 19 35 10 19 1009.2 1009.2 0.0
19/09:43am 9.9 3.1 3.2 63 2.9 SW 28 46 15 25 1009.2 1009.2 0.0
19/09:30am 9.6 3.1 2.9 63 2.9 SW 26 39 14 21 1009.1 1009.1 0.0
19/09:00am 8.9 2.6 3.7 70 2.3 WSW 26 44 14 24 1008.8 1008.8 1.6
19/08:37am 8.9 1.9 4.1 72 2.1 SW 30 48 16 26 1008.5 1008.5 1.6
19/08:30am 9.1 1.5 3.9 70 2.3 SW 33 48 18 26 1008.4 1008.4 1.6
19/08:00am 9.0 1.3 3.6 69 2.4 SW 33 43 18 23 1008.0 1008.0 1.6
19/07:30am 8.3 3.0 3.2 70 2.2 SW 20 28 11 15 1007.6 1007.6 1.6
19/07:00am 7.8 1.0 3.3 73 1.9 SW 28 39 15 21 1007.4 1007.4 1.6
19/06:30am 8.6 3.1 4.2 74 1.9 SW 22 32 12 17 1007.0 1007.0 1.2
19/06:00am 8.0 1.0 4.2 77 1.7 SW 30 37 16 20 1006.5 1006.5 1.2
19/05:30am 8.5 1.0 4.3 75 1.8 SW 33 46 18 25 1006.0 1006.0 1.2
19/05:26am 8.9 2.4 4.5 74 2.0 SW 28 46 15 25 1005.9 1005.9 1.2
19/05:00am 9.0 3.9 4.2 72 2.1 WSW 20 37 11 20 1005.5 1005.6 1.2
19/04:30am 8.9 3.7 3.5 69 2.3 W 20 30 11 16 1005.3 1005.4 1.2
19/04:00am 8.9 3.8 3.3 68 2.4 W 19 24 10 13 1005.2 1005.3 1.2
19/03:30am 9.0 3.5 4.0 71 2.2 W 22 33 12 18 1005.3 1005.4 1.2
19/03:00am 8.9 3.8 3.9 71 2.2 W 20 33 11 18 1005.3 1005.4 1.2
19/02:30am 8.9 4.0 4.9 76 1.8 W 20 32 11 17 1005.4 1005.5 1.2
19/02:00am 8.2 3.5 5.1 81 1.4 W 19 24 10 13 1005.9 1005.9 1.2
19/01:30am 9.7 3.2 4.5 70 2.3 W 28 39 15 21 1005.9 1005.9 0.6
19/01:00am 9.9 4.1 4.5 69 2.4 W 24 35 13 19 1006.1 1006.1 0.6
19/12:30am 9.8 4.0 4.6 70 2.3 W 24 33 13 18 1006.2 1006.2 0.6
19/12:00am 9.8 4.0 4.4 69 2.4 W 24 35 13 19 1006.3 1006.3 0.6
 
Date/Time
EST
Temp
°C
App
Temp
°C
Dew
Point
°C
Rel
Hum
%
Delta-T
°C
Wind Press
QNH
hPa
Press
MSL
hPa
Rain since
9am
mm
Dir  Spd
km/h
Gust
km/h
Spd
kts
Gust
kts
18/11:30pm 10.0 3.9 4.6 69 2.4 W 26 35 14 19 1006.2 1006.2 0.6
18/11:00pm 9.8 2.3 4.4 69 2.4 W 33 44 18 24 1006.2 1006.2 0.6
18/10:30pm 9.7 3.3 5.3 74 2.0 W 28 35 15 19 1006.3 1006.3 0.6
18/10:00pm 9.8 4.2 5.6 75 1.9 W 24 39 13 21 1006.3 1006.3 0.6
18/09:30pm 9.7 5.3 6.6 81 1.5 W 19 32 10 17 1006.2 1006.2 0.6
18/09:00pm 9.2 4.6 5.6 78 1.6 W 19 26 10 14 1006.2 1006.2 0.6
18/08:30pm 9.5 2.5 5.9 78 1.7 NW 32 41 17 22 1006.2 1006.2 0.6
18/08:00pm 9.7 2.4 5.3 74 2.0 WNW 33 46 18 25 1006.1 1006.1 0.6
18/07:30pm 8.9 1.6 5.5 79 1.5 W 33 43 18 23 1006.1 1006.1 0.6
18/07:05pm 9.3 0.8 5.1 75 1.9 W 39 61 21 33 1005.8 1005.8 0.6
18/07:00pm 10.2 1.4 5.4 72 2.2 WNW 41 52 22 28 1005.8 1005.8 0.6
18/06:30pm 10.1 1.9 4.9 70 2.4 WNW 37 50 20 27 1005.4 1005.5 0.6
18/06:00pm 9.6 2.8 6.7 82 1.4 WNW 32 44 17 24 1005.5 1005.6 0.6
18/05:30pm 8.9 1.3 6.0 82 1.3 WNW 35 46 19 25 1005.3 1005.4 0.6
18/05:01pm 10.8 2.2 6.4 74 2.1 WNW 41 63 22 34 1005.0 1005.1 0.0
18/05:00pm 10.9 2.7 6.5 74 2.1 WNW 39 56 21 30 1004.9 1005.0 0.0
18/04:59pm 10.9 3.0 6.1 72 2.2 WNW 37 56 20 30 1004.9 1005.0 0.0
18/04:30pm 11.6 4.1 6.1 69 2.6 WNW 35 44 19 24 1004.5 1004.6 0.0
18/04:00pm 12.2 5.4 6.9 70 2.6 WNW 32 41 17 22 1004.5 1004.6 0.0
18/03:30pm 12.1 5.8 7.4 73 2.3 WNW 30 37 16 20 1004.4 1004.5 0.0
18/03:00pm 12.2 5.8 8.7 79 1.8 WNW 32 41 17 22 1004.6 1004.7 0.0
18/02:30pm 10.9 2.4 7.0 77 1.9 WNW 41 61 22 33 1004.5 1004.6 0.0
18/02:01pm 12.7 5.2 6.5 66 3.0 WNW 35 56 19 30 1004.2 1004.3 0.0
18/02:00pm 13.2 5.9 7.0 66 3.0 WNW 35 46 19 25 1004.2 1004.3 0.0
18/01:30pm 13.3 7.1 8.0 70 2.6 WNW 30 39 16 21 1004.3 1004.4 0.0
18/01:00pm 12.4 6.2 7.7 73 2.3 W 30 39 16 21 1004.4 1004.5 0.0
18/12:30pm 12.4 5.1 7.3 71 2.5 W 35 48 19 26 1004.4 1004.5 0.0
18/12:00pm 12.0 5.3 9.6 85 1.2 W 35 48 19 26 1004.2 1004.3 0.0
18/11:49am 11.7 2.8 9.1 84 1.3 WNW 46 61 25 33 1004.4 1004.5 0.0
18/11:30am 12.8 2.8 7.7 71 2.5 NW 50 65 27 35 1004.0 1004.1 0.0
18/11:00am 13.7 4.9 7.2 65 3.2 NW 43 65 23 35 1004.1 1004.2 0.0
18/10:46am 13.9 5.3 6.5 61 3.6 NW 41 61 22 33 1004.1 1004.2 0.0
18/10:30am 13.9 5.3 6.5 61 3.6 NW 41 56 22 30 1004.1 1004.2 0.0
18/10:00am 13.3 5.9 8.2 71 2.6 NNW 37 44 20 24 1004.3 1004.4 0.0
18/09:30am 13.3 4.7 8.0 70 2.6 NNW 43 54 23 29 1004.4 1004.5 0.0
18/09:00am 13.6 5.0 8.0 69 2.8 NNW 43 54 23 29 1004.4 1004.5 1.2
18/08:30am 12.8 4.8 7.5 70 2.6 NNW 39 52 21 28 1004.5 1004.6 1.2
18/08:00am 12.9 4.1 7.4 69 2.7 NNW 43 54 23 29 1004.6 1004.7 1.2
18/07:31am 12.9 3.9 7.1 68 2.8 NNW 44 63 24 34 1004.6 1004.7 1.2
18/07:30am 13.0 3.6 7.0 67 2.9 NNW 46 63 25 34 1004.6 1004.7 1.2
18/07:00am 13.0 3.1 6.6 65 3.1 N 48 61 26 33 1004.2 1004.3 1.2
18/06:30am 12.8 3.3 6.6 66 3.0 N 46 59 25 32 1004.3 1004.4 1.2
18/06:06am 12.6 3.0 6.4 66 3.0 N 46 65 25 35 1004.5 1004.6 1.2
18/06:00am 12.6 2.6 6.2 65 3.1 N 48 65 26 35 1004.6 1004.7 1.2
18/05:30am 12.7 3.2 6.5 66 3.0 N 46 61 25 33 1004.8 1004.9 1.2
18/05:00am 12.7 3.2 6.5 66 3.0 N 46 59 25 32 1005.1 1005.2 1.2
18/04:30am 12.4 4.0 7.3 71 2.5 N 41 52 22 28 1005.5 1005.6 1.2
18/04:00am 12.7 4.3 7.2 69 2.7 N 41 52 22 28 1005.9 1005.9 1.2
18/03:37am 12.7 3.9 7.2 69 2.7 N 43 61 23 33 1006.1 1006.1 1.2
18/03:30am 12.7 3.3 7.2 69 2.7 N 46 57 25 31 1006.2 1006.2 1.2
18/03:00am 12.7 3.2 6.7 67 2.9 N 46 59 25 32 1006.8 1006.8 1.2
18/02:30am 12.8 3.3 6.8 67 2.9 N 46 63 25 34 1007.1 1007.1 1.2
18/02:00am 12.9 2.6 6.5 65 3.1 N 50 61 27 33 1007.4 1007.4 1.2
18/01:30am 12.9 2.6 6.5 65 3.1 N 50 63 27 34 1007.9 1007.9 1.2
18/01:00am 12.7 3.6 7.0 68 2.8 N 44 59 24 32 1008.4 1008.4 1.2
18/12:30am 12.4 3.8 8.1 75 2.1 N 43 54 23 29 1009.0 1009.0 1.2
18/12:00am 12.1 4.4 8.6 79 1.7 N 39 48 21 26 1009.5 1009.5 1.2
 
Date/Time
EST
Temp
°C
App
Temp
°C
Dew
Point
°C
Rel
Hum
%
Delta-T
°C
Wind Press
QNH
hPa
Press
MSL
hPa
Rain since
9am
mm
Dir  Spd
km/h
Gust
km/h
Spd
kts
Gust
kts
17/11:30pm 11.8 4.4 8.3 79 1.7 NNE 37 48 20 26 1010.0 1010.1 1.2
17/11:00pm 11.6 4.1 8.1 79 1.7 NNE 37 46 20 25 1010.3 1010.4 1.2
17/10:30pm 11.2 4.1 7.9 80 1.6 NNE 35 43 19 23 1011.0 1011.1 1.2
17/10:00pm 11.4 4.1 7.3 76 2.0 NNE 35 43 19 23 1011.2 1011.3 1.2
17/09:30pm 11.6 4.8 7.7 77 1.9 N 33 43 18 23 1011.4 1011.5 1.2
17/09:00pm 11.3 4.8 8.0 80 1.6 N 32 37 17 20 1011.8 1011.9 1.2
17/08:30pm 11.3 4.8 8.0 80 1.6 N 32 43 17 23 1012.0 1012.1 1.2
17/08:00pm 11.2 5.1 8.4 83 1.4 N 30 35 16 19 1012.2 1012.3 1.2
17/07:30pm 11.7 6.2 7.4 75 2.1 N 26 35 14 19 1012.3 1012.4 1.2
17/07:00pm 11.7 6.2 7.4 75 2.1 N 26 32 14 17 1012.6 1012.7 1.2
17/06:30pm 11.7 5.8 7.4 75 2.1 NNW 28 35 15 19 1012.8 1012.9 1.2
17/06:00pm 11.8 5.5 7.3 74 2.2 NNW 30 37 16 20 1012.9 1013.0 1.2
17/05:30pm 12.1 5.1 7.0 71 2.5 NNW 33 43 18 23 1012.9 1013.0 1.2
17/05:00pm 12.1 5.3 6.8 70 2.5 NW 32 44 17 24 1012.9 1013.0 1.2
17/04:30pm 12.4 3.8 6.7 68 2.7 NW 41 57 22 31 1013.1 1013.2 1.2
17/04:00pm 12.1 4.0 6.8 70 2.5 NNW 39 52 21 28 1013.3 1013.4 1.2
17/03:35pm 12.0 3.4 6.5 69 2.6 NW 41 63 22 34 1013.4 1013.5 1.2
17/03:30pm 12.1 4.0 6.8 70 2.5 NW 39 52 21 28 1013.5 1013.6 1.2
17/03:00pm 11.5 2.6 6.8 73 2.2 NW 43 61 23 33 1013.7 1013.8 1.2
17/02:30pm 12.1 3.9 6.6 69 2.6 NW 39 50 21 27 1013.9 1014.0 1.0
17/02:00pm 12.1 2.6 6.8 70 2.5 NW 46 56 25 30 1014.0 1014.1 1.0
17/01:30pm 12.4 3.5 7.7 73 2.3 NW 44 57 24 31 1014.2 1014.3 1.0
17/01:13pm 12.3 5.3 8.4 77 1.9 NW 35 56 19 30 1014.3 1014.4 1.0
17/01:00pm 11.7 4.7 8.4 80 1.6 NNW 35 44 19 24 1014.6 1014.7 1.0
17/12:30pm 12.5 5.1 8.2 75 2.1 NW 37 56 20 30 1014.9 1015.0 1.0
17/12:28pm 12.4 5.7 8.1 75 2.1 NW 33 52 18 28 1014.9 1015.0 1.0
17/12:00pm 12.9 4.4 8.6 75 2.2 NW 43 56 23 30 1015.2 1015.3 1.0
17/11:31am 11.0 5.4 8.8 86 1.1 WNW 28 46 15 25 1015.6 1015.7 1.0
17/11:30am 10.9 5.7 9.0 88 0.9 WNW 26 41 14 22 1015.7 1015.8 1.0
17/11:00am 11.6 5.0 8.5 81 1.5 NW 33 46 18 25 1015.9 1016.0 1.0
17/10:35am 11.5 3.6 8.0 79 1.7 WNW 39 57 21 31 1016.0 1016.1 1.0
17/10:30am 11.3 3.8 8.0 80 1.6 WNW 37 50 20 27 1016.1 1016.2 1.0
17/10:08am 10.2 1.6 9.0 92 0.6 WNW 44 65 24 35 1016.2 1016.3 0.8
17/10:06am 10.1 1.5 8.9 92 0.6 WNW 44 65 24 35 1016.1 1016.2 0.8
17/10:00am 10.2 2.9 10.1 99 0.1 WNW 39 52 21 28 1016.3 1016.4 0.8
17/09:51am 10.4 3.5 8.8 90 0.8 NW 35 54 19 29 1016.4 1016.5 0.6
17/09:30am 11.1 3.6 8.0 81 1.5 NW 37 52 20 28 1016.3 1016.4 0.0
17/09:00am 11.4 4.3 8.1 80 1.6 NW 35 44 19 24 1016.4 1016.5 2.0
17/08:30am 10.4 3.9 9.0 91 0.7 NW 33 44 18 24 1016.6 1016.7 2.0
17/08:00am 9.8 0.1 7.7 87 1.0 NW 48 59 26 32 1016.6 1016.7 2.0
17/07:52am 10.9 2.5 7.4 79 1.7 NW 41 59 22 32 1016.4 1016.5 1.8
17/07:30am 11.1 3.1 7.6 79 1.7 NW 39 48 21 26 1016.3 1016.4 1.8
17/07:00am 10.6 2.6 7.5 81 1.5 NW 39 50 21 27 1016.1 1016.2 1.8
17/06:39am 10.8 4.2 7.9 82 1.4 WNW 32 50 17 27 1016.1 1016.2 1.8
17/06:30am 10.3 4.4 7.5 83 1.3 WNW 28 37 15 20 1016.1 1016.2 1.8
17/06:09am 11.0 3.7 7.1 77 1.9 WNW 35 56 19 30 1016.1 1016.2 1.6
17/06:00am 10.9 4.1 7.0 77 1.9 WNW 32 46 17 25 1016.1 1016.2 1.6
17/05:30am 11.1 3.4 7.0 76 2.0 WNW 37 48 20 26 1016.1 1016.2 1.6
17/05:00am 10.7 2.9 6.5 75 2.0 WNW 37 46 20 25 1016.0 1016.1 1.6
17/04:30am 10.3 3.3 6.8 79 1.7 WNW 33 43 18 23 1016.1 1016.2 1.6
17/04:00am 10.2 2.5 7.1 81 1.5 WNW 37 44 20 24 1016.2 1016.3 1.6
17/03:30am 9.4 1.7 7.0 85 1.1 WNW 37 54 20 29 1016.2 1016.3 1.6
17/03:18am 10.0 1.9 6.9 81 1.5 WNW 39 61 21 33 1016.3 1016.4 1.6
17/03:00am 9.8 1.7 7.1 83 1.3 WNW 39 48 21 26 1016.4 1016.5 1.6
17/02:30am 9.7 1.7 7.3 85 1.1 W 39 69 21 37 1016.5 1016.6 1.6
17/02:27am 10.2 2.2 7.4 83 1.3 WNW 39 69 21 37 1016.5 1016.6 1.6
17/02:00am 10.1 2.8 7.3 83 1.3 WNW 35 44 19 24 1017.0 1017.1 1.6
17/01:30am 10.2 2.8 6.9 80 1.6 W 35 46 19 25 1017.3 1017.4 1.6
17/01:00am 10.3 3.1 7.5 83 1.3 WNW 35 46 19 25 1017.4 1017.5 1.6
17/12:30am 9.6 1.9 7.2 85 1.1 WNW 37 48 20 26 1017.6 1017.7 1.6
17/12:10am 10.2 2.5 7.3 82 1.4 WNW 37 59 20 32 1017.6 1017.7 1.4
17/12:00am 9.7 2.4 7.0 83 1.3 WNW 35 43 19 23 1017.8 1017.8 1.4
 
Date/Time
EST
Temp
°C
App
Temp
°C
Dew
Point
°C
Rel
Hum
%
Delta-T
°C
Wind Press
QNH
hPa
Press
MSL
hPa
Rain since
9am
mm
Dir  Spd
km/h
Gust
km/h
Spd
kts
Gust
kts
16/11:42pm 10.2 2.9 7.1 81 1.5 WNW 35 54 19 29 1017.8 1017.8 1.2
16/11:30pm 10.2 2.0 6.4 77 1.8 WNW 39 46 21 25 1017.8 1017.8 1.2
16/11:00pm 10.7 3.4 7.2 79 1.7 WNW 35 46 19 25 1018.0 1018.0 1.2
16/10:30pm 10.5 3.6 7.2 80 1.6 WNW 33 44 18 24 1018.3 1018.3 1.2
16/10:00pm 10.4 3.4 6.9 79 1.7 WNW 33 48 18 26 1018.5 1018.5 1.2
16/09:56pm 10.2 4.2 6.9 80 1.6 WNW 28 46 15 25 1018.5 1018.5 1.2

Other Formats:

Comma delimited format used in spreadsheet applications
http://www.bom.gov.au/fwo/IDT60801/IDT60801.95954.axf

JavaScript Object Notation format (JSON) in row-major order
http://www.bom.gov.au/fwo/IDT60801/IDT60801.95954.json